sensor_id;sensor_type;location;lat;lon;timestamp;pressure;altitude;pressure_sealevel;temperature;humidity
28004;BME280;15330;51.234;6.754;2024-01-30T00:00:35;102369.44;;;9.37;76.75
28004;BME280;15330;51.234;6.754;2024-01-30T00:03:00;102361.34;;;9.39;76.65
28004;BME280;15330;51.234;6.754;2024-01-30T00:05:26;102364.19;;;9.36;76.94
28004;BME280;15330;51.234;6.754;2024-01-30T00:07:51;102368.56;;;9.37;76.70
28004;BME280;15330;51.234;6.754;2024-01-30T00:10:16;102362.38;;;9.36;76.54
28004;BME280;15330;51.234;6.754;2024-01-30T00:12:42;102364.09;;;9.37;76.70
28004;BME280;15330;51.234;6.754;2024-01-30T00:15:07;102361.84;;;9.29;76.77
28004;BME280;15330;51.234;6.754;2024-01-30T00:17:35;102359.81;;;9.35;76.95
28004;BME280;15330;51.234;6.754;2024-01-30T00:20:01;102359.63;;;9.38;76.84
28004;BME280;15330;51.234;6.754;2024-01-30T00:22:30;102361.59;;;9.34;76.93
28004;BME280;15330;51.234;6.754;2024-01-30T00:24:56;102357.03;;;9.36;76.80
28004;BME280;15330;51.234;6.754;2024-01-30T00:27:21;102351.94;;;9.16;77.67
28004;BME280;15330;51.234;6.754;2024-01-30T00:29:46;102354.88;;;9.27;76.96
28004;BME280;15330;51.234;6.754;2024-01-30T00:32:12;102361.84;;;9.29;77.12
28004;BME280;15330;51.234;6.754;2024-01-30T00:34:37;102358.16;;;9.16;77.53
28004;BME280;15330;51.234;6.754;2024-01-30T00:37:03;102354.44;;;9.03;77.79
28004;BME280;15330;51.234;6.754;2024-01-30T00:39:28;102354.19;;;9.23;77.08
28004;BME280;15330;51.234;6.754;2024-01-30T00:41:53;102348.66;;;9.26;77.04
28004;BME280;15330;51.234;6.754;2024-01-30T00:44:19;102355.66;;;9.13;77.47
28004;BME280;15330;51.234;6.754;2024-01-30T00:46:45;102353.75;;;9.15;77.12
28004;BME280;15330;51.234;6.754;2024-01-30T00:49:10;102346.94;;;9.25;76.90
28004;BME280;15330;51.234;6.754;2024-01-30T00:51:36;102348.31;;;9.01;77.47
28004;BME280;15330;51.234;6.754;2024-01-30T00:54:01;102347.19;;;9.05;77.39
28004;BME280;15330;51.234;6.754;2024-01-30T00:56:28;102342.72;;;9.05;77.46
28004;BME280;15330;51.234;6.754;2024-01-30T00:58:53;102345.28;;;9.07;77.57
28004;BME280;15330;51.234;6.754;2024-01-30T01:01:18;102348.94;;;9.06;77.55
28004;BME280;15330;51.234;6.754;2024-01-30T01:03:44;102349.00;;;9.04;77.71
28004;BME280;15330;51.234;6.754;2024-01-30T01:06:10;102352.34;;;9.08;77.43
28004;BME280;15330;51.234;6.754;2024-01-30T01:08:36;102353.16;;;9.10;77.12
28004;BME280;15330;51.234;6.754;2024-01-30T01:11:01;102353.91;;;8.96;77.59
28004;BME280;15330;51.234;6.754;2024-01-30T01:13:26;102359.31;;;8.95;77.76
28004;BME280;15330;51.234;6.754;2024-01-30T01:15:52;102359.22;;;8.80;78.48
28004;BME280;15330;51.234;6.754;2024-01-30T01:18:17;102350.78;;;8.88;78.37
28004;BME280;15330;51.234;6.754;2024-01-30T01:20:42;102361.13;;;8.94;77.64
28004;BME280;15330;51.234;6.754;2024-01-30T01:23:08;102359.25;;;8.96;77.67
28004;BME280;15330;51.234;6.754;2024-01-30T01:25:33;102362.13;;;9.09;77.04
28004;BME280;15330;51.234;6.754;2024-01-30T01:27:58;102360.88;;;8.99;77.48
28004;BME280;15330;51.234;6.754;2024-01-30T01:30:26;102364.66;;;8.95;77.63
28004;BME280;15330;51.234;6.754;2024-01-30T01:32:51;102354.75;;;8.97;77.72
28004;BME280;15330;51.234;6.754;2024-01-30T01:35:26;102356.31;;;9.01;77.15
28004;BME280;15330;51.234;6.754;2024-01-30T01:37:52;102354.66;;;8.98;77.38
28004;BME280;15330;51.234;6.754;2024-01-30T01:40:23;102350.94;;;8.85;77.92
28004;BME280;15330;51.234;6.754;2024-01-30T01:42:50;102347.94;;;8.91;77.65
28004;BME280;15330;51.234;6.754;2024-01-30T01:45:16;102347.16;;;8.89;77.85
28004;BME280;15330;51.234;6.754;2024-01-30T01:47:42;102338.44;;;8.85;77.82
28004;BME280;15330;51.234;6.754;2024-01-30T01:50:08;102346.19;;;8.74;78.58
28004;BME280;15330;51.234;6.754;2024-01-30T01:52:33;102349.06;;;8.87;77.80
28004;BME280;15330;51.234;6.754;2024-01-30T01:54:59;102346.13;;;8.92;77.80
28004;BME280;15330;51.234;6.754;2024-01-30T01:57:25;102347.50;;;8.99;77.63
28004;BME280;15330;51.234;6.754;2024-01-30T01:59:51;102337.03;;;8.96;77.53
28004;BME280;15330;51.234;6.754;2024-01-30T02:02:17;102334.56;;;8.75;78.29
28004;BME280;15330;51.234;6.754;2024-01-30T02:04:45;102336.47;;;8.73;78.06
28004;BME280;15330;51.234;6.754;2024-01-30T02:07:10;102341.81;;;8.89;77.63
28004;BME280;15330;51.234;6.754;2024-01-30T02:09:36;102340.34;;;8.83;77.57
28004;BME280;15330;51.234;6.754;2024-01-30T02:12:01;102342.16;;;8.83;77.82
28004;BME280;15330;51.234;6.754;2024-01-30T02:14:27;102334.53;;;8.93;77.52
28004;BME280;15330;51.234;6.754;2024-01-30T02:16:52;102335.53;;;8.90;77.78
28004;BME280;15330;51.234;6.754;2024-01-30T02:19:18;102331.72;;;8.78;78.24
28004;BME280;15330;51.234;6.754;2024-01-30T02:21:44;102328.03;;;8.81;78.22
28004;BME280;15330;51.234;6.754;2024-01-30T02:24:10;102324.72;;;8.76;77.90
28004;BME280;15330;51.234;6.754;2024-01-30T02:26:35;102322.25;;;8.89;77.85
28004;BME280;15330;51.234;6.754;2024-01-30T02:29:01;102318.38;;;8.78;78.17
28004;BME280;15330;51.234;6.754;2024-01-30T02:31:26;102319.66;;;8.71;78.01
28004;BME280;15330;51.234;6.754;2024-01-30T02:33:51;102315.59;;;8.64;78.59
28004;BME280;15330;51.234;6.754;2024-01-30T02:36:17;102315.44;;;8.67;78.35
28004;BME280;15330;51.234;6.754;2024-01-30T02:38:42;102322.31;;;8.71;78.22
28004;BME280;15330;51.234;6.754;2024-01-30T02:41:07;102313.19;;;8.75;78.20
28004;BME280;15330;51.234;6.754;2024-01-30T02:43:33;102307.78;;;8.77;78.06
28004;BME280;15330;51.234;6.754;2024-01-30T02:45:58;102315.75;;;8.61;78.75
28004;BME280;15330;51.234;6.754;2024-01-30T02:48:25;102312.59;;;8.70;78.42
28004;BME280;15330;51.234;6.754;2024-01-30T02:50:51;102305.81;;;8.80;78.08
28004;BME280;15330;51.234;6.754;2024-01-30T02:53:16;102302.84;;;8.69;78.22
28004;BME280;15330;51.234;6.754;2024-01-30T02:55:42;102304.53;;;8.88;77.61
28004;BME280;15330;51.234;6.754;2024-01-30T02:58:07;102307.97;;;8.90;77.45
28004;BME280;15330;51.234;6.754;2024-01-30T03:00:33;102307.16;;;8.72;78.22
28004;BME280;15330;51.234;6.754;2024-01-30T03:02:58;102306.13;;;8.74;78.24
28004;BME280;15330;51.234;6.754;2024-01-30T03:05:24;102295.13;;;8.80;78.16
28004;BME280;15330;51.234;6.754;2024-01-30T03:07:50;102301.06;;;8.85;77.99
28004;BME280;15330;51.234;6.754;2024-01-30T03:10:15;102289.50;;;8.69;78.41
28004;BME280;15330;51.234;6.754;2024-01-30T03:12:41;102290.63;;;8.65;78.55
28004;BME280;15330;51.234;6.754;2024-01-30T03:15:06;102297.84;;;8.63;78.51
28004;BME280;15330;51.234;6.754;2024-01-30T03:17:31;102297.44;;;8.71;78.25
28004;BME280;15330;51.234;6.754;2024-01-30T03:19:57;102288.53;;;8.54;79.25
28004;BME280;15330;51.234;6.754;2024-01-30T03:22:22;102291.31;;;8.69;78.72
28004;BME280;15330;51.234;6.754;2024-01-30T03:24:48;102290.44;;;8.68;78.29
28004;BME280;15330;51.234;6.754;2024-01-30T03:27:13;102292.00;;;8.72;78.36
28004;BME280;15330;51.234;6.754;2024-01-30T03:29:39;102283.81;;;8.75;78.43
28004;BME280;15330;51.234;6.754;2024-01-30T03:32:04;102287.88;;;8.82;77.90
28004;BME280;15330;51.234;6.754;2024-01-30T03:34:30;102289.94;;;8.77;78.15
28004;BME280;15330;51.234;6.754;2024-01-30T03:36:55;102289.25;;;8.74;78.34
28004;BME280;15330;51.234;6.754;2024-01-30T03:39:20;102287.97;;;8.81;78.24
28004;BME280;15330;51.234;6.754;2024-01-30T03:41:46;102288.59;;;8.86;77.90
28004;BME280;15330;51.234;6.754;2024-01-30T03:44:11;102286.75;;;8.71;78.79
28004;BME280;15330;51.234;6.754;2024-01-30T03:46:37;102278.38;;;8.61;78.95
28004;BME280;15330;51.234;6.754;2024-01-30T03:49:02;102281.13;;;8.59;79.24
28004;BME280;15330;51.234;6.754;2024-01-30T03:51:28;102272.94;;;8.62;79.13
28004;BME280;15330;51.234;6.754;2024-01-30T03:53:53;102275.72;;;8.61;79.30
28004;BME280;15330;51.234;6.754;2024-01-30T03:56:19;102279.28;;;8.77;78.71
28004;BME280;15330;51.234;6.754;2024-01-30T03:58:44;102275.47;;;8.81;78.24
28004;BME280;15330;51.234;6.754;2024-01-30T04:01:13;102281.25;;;8.74;78.67
28004;BME280;15330;51.234;6.754;2024-01-30T04:03:39;102279.94;;;8.65;78.85
28004;BME280;15330;51.234;6.754;2024-01-30T04:06:04;102285.81;;;8.72;78.54
28004;BME280;15330;51.234;6.754;2024-01-30T04:08:30;102281.84;;;8.79;78.57
28004;BME280;15330;51.234;6.754;2024-01-30T04:10:55;102274.78;;;8.78;78.23
28004;BME280;15330;51.234;6.754;2024-01-30T04:13:20;102268.06;;;8.71;78.39
28004;BME280;15330;51.234;6.754;2024-01-30T04:15:46;102275.22;;;8.70;78.63
28004;BME280;15330;51.234;6.754;2024-01-30T04:18:11;102269.63;;;8.75;78.46
28004;BME280;15330;51.234;6.754;2024-01-30T04:20:36;102268.63;;;8.60;79.01
28004;BME280;15330;51.234;6.754;2024-01-30T04:23:02;102271.13;;;8.63;79.05
28004;BME280;15330;51.234;6.754;2024-01-30T04:25:27;102256.88;;;8.64;78.69
28004;BME280;15330;51.234;6.754;2024-01-30T04:27:53;102256.94;;;8.62;79.07
28004;BME280;15330;51.234;6.754;2024-01-30T04:30:18;102256.25;;;8.59;79.05
28004;BME280;15330;51.234;6.754;2024-01-30T04:32:44;102248.34;;;8.57;79.02
28004;BME280;15330;51.234;6.754;2024-01-30T04:35:09;102250.06;;;8.58;78.75
28004;BME280;15330;51.234;6.754;2024-01-30T04:37:34;102257.03;;;8.61;79.07
28004;BME280;15330;51.234;6.754;2024-01-30T04:40:00;102254.25;;;8.62;78.60
28004;BME280;15330;51.234;6.754;2024-01-30T04:42:25;102255.81;;;8.51;79.56
28004;BME280;15330;51.234;6.754;2024-01-30T04:44:50;102262.59;;;8.56;78.92
28004;BME280;15330;51.234;6.754;2024-01-30T04:47:16;102270.53;;;8.58;79.01
28004;BME280;15330;51.234;6.754;2024-01-30T04:49:42;102260.03;;;8.55;79.07
28004;BME280;15330;51.234;6.754;2024-01-30T04:52:08;102269.41;;;8.46;79.36
28004;BME280;15330;51.234;6.754;2024-01-30T04:54:34;102264.41;;;8.56;79.01
28004;BME280;15330;51.234;6.754;2024-01-30T04:57:00;102263.47;;;8.57;78.67
28004;BME280;15330;51.234;6.754;2024-01-30T04:59:26;102259.09;;;8.56;79.05
28004;BME280;15330;51.234;6.754;2024-01-30T05:01:51;102256.16;;;8.45;79.31
28004;BME280;15330;51.234;6.754;2024-01-30T05:04:16;102261.38;;;8.46;79.38
28004;BME280;15330;51.234;6.754;2024-01-30T05:06:42;102257.44;;;8.53;79.12
28004;BME280;15330;51.234;6.754;2024-01-30T05:09:07;102257.84;;;8.46;79.35
28004;BME280;15330;51.234;6.754;2024-01-30T05:11:40;102260.63;;;8.60;78.89
28004;BME280;15330;51.234;6.754;2024-01-30T05:14:07;102257.53;;;8.52;79.25
28004;BME280;15330;51.234;6.754;2024-01-30T05:16:32;102252.72;;;8.58;78.84
28004;BME280;15330;51.234;6.754;2024-01-30T05:18:58;102258.41;;;8.68;78.61
28004;BME280;15330;51.234;6.754;2024-01-30T05:21:24;102250.91;;;8.59;79.05
28004;BME280;15330;51.234;6.754;2024-01-30T05:23:49;102244.88;;;8.55;79.16
28004;BME280;15330;51.234;6.754;2024-01-30T05:26:15;102260.09;;;8.53;78.87
28004;BME280;15330;51.234;6.754;2024-01-30T05:28:40;102243.66;;;8.45;79.22
28004;BME280;15330;51.234;6.754;2024-01-30T05:31:05;102250.47;;;8.51;79.58
28004;BME280;15330;51.234;6.754;2024-01-30T05:33:31;102246.69;;;8.55;79.20
28004;BME280;15330;51.234;6.754;2024-01-30T05:35:56;102258.91;;;8.59;79.09
28004;BME280;15330;51.234;6.754;2024-01-30T05:38:22;102259.94;;;8.56;79.00
28004;BME280;15330;51.234;6.754;2024-01-30T05:40:47;102247.44;;;8.57;78.96
28004;BME280;15330;51.234;6.754;2024-01-30T05:43:12;102250.13;;;8.57;78.83
28004;BME280;15330;51.234;6.754;2024-01-30T05:45:38;102250.47;;;8.51;79.04
28004;BME280;15330;51.234;6.754;2024-01-30T05:48:04;102253.38;;;8.46;79.52
28004;BME280;15330;51.234;6.754;2024-01-30T05:50:30;102254.00;;;8.99;83.22
28004;BME280;15330;51.234;6.754;2024-01-30T05:52:55;102243.16;;;9.18;78.27
28004;BME280;15330;51.234;6.754;2024-01-30T05:55:21;102254.56;;;9.05;77.84
28004;BME280;15330;51.234;6.754;2024-01-30T05:57:46;102249.81;;;8.95;78.19
28004;BME280;15330;51.234;6.754;2024-01-30T06:00:12;102245.06;;;8.68;78.84
28004;BME280;15330;51.234;6.754;2024-01-30T06:02:38;102242.19;;;8.55;79.02
28004;BME280;15330;51.234;6.754;2024-01-30T06:05:03;102248.41;;;8.56;79.13
28004;BME280;15330;51.234;6.754;2024-01-30T06:07:28;102250.13;;;8.73;79.02
28004;BME280;15330;51.234;6.754;2024-01-30T06:09:54;102251.34;;;8.67;79.20
28004;BME280;15330;51.234;6.754;2024-01-30T06:12:19;102242.47;;;8.67;78.66
28004;BME280;15330;51.234;6.754;2024-01-30T06:14:45;102248.50;;;8.54;78.91
28004;BME280;15330;51.234;6.754;2024-01-30T06:17:10;102240.13;;;8.45;79.60
28004;BME280;15330;51.234;6.754;2024-01-30T06:19:40;102245.13;;;8.51;79.21
28004;BME280;15330;51.234;6.754;2024-01-30T06:22:05;102242.81;;;8.45;79.73
28004;BME280;15330;51.234;6.754;2024-01-30T06:24:31;102237.56;;;8.59;79.02
28004;BME280;15330;51.234;6.754;2024-01-30T06:26:56;102239.00;;;8.49;79.45
28004;BME280;15330;51.234;6.754;2024-01-30T06:29:22;102234.09;;;8.57;78.99
28004;BME280;15330;51.234;6.754;2024-01-30T06:31:50;102236.34;;;8.49;79.40
28004;BME280;15330;51.234;6.754;2024-01-30T06:34:15;102232.91;;;8.29;80.18
28004;BME280;15330;51.234;6.754;2024-01-30T06:36:41;102228.75;;;8.41;79.72
28004;BME280;15330;51.234;6.754;2024-01-30T06:39:06;102230.38;;;8.44;79.59
28004;BME280;15330;51.234;6.754;2024-01-30T06:41:32;102225.31;;;8.39;79.95
28004;BME280;15330;51.234;6.754;2024-01-30T06:43:58;102229.81;;;8.37;79.84
28004;BME280;15330;51.234;6.754;2024-01-30T06:46:23;102230.53;;;8.40;79.82
28004;BME280;15330;51.234;6.754;2024-01-30T06:48:48;102232.81;;;8.48;79.33
28004;BME280;15330;51.234;6.754;2024-01-30T06:51:14;102239.97;;;8.48;79.20
28004;BME280;15330;51.234;6.754;2024-01-30T06:53:39;102253.75;;;8.56;78.99
28004;BME280;15330;51.234;6.754;2024-01-30T06:56:05;102252.03;;;8.55;78.99
28004;BME280;15330;51.234;6.754;2024-01-30T06:58:31;102256.59;;;8.69;79.18
28004;BME280;15330;51.234;6.754;2024-01-30T07:00:57;102248.69;;;8.67;78.66
28004;BME280;15330;51.234;6.754;2024-01-30T07:03:23;102259.44;;;8.66;78.83
28004;BME280;15330;51.234;6.754;2024-01-30T07:05:49;102268.94;;;8.71;78.74
28004;BME280;15330;51.234;6.754;2024-01-30T07:08:15;102257.72;;;8.65;78.81
28004;BME280;15330;51.234;6.754;2024-01-30T07:10:43;102251.34;;;8.67;79.12
28004;BME280;15330;51.234;6.754;2024-01-30T07:13:08;102253.25;;;8.65;78.89
28004;BME280;15330;51.234;6.754;2024-01-30T07:15:35;102251.03;;;8.73;78.57
28004;BME280;15330;51.234;6.754;2024-01-30T07:18:01;102253.88;;;8.70;78.62
28004;BME280;15330;51.234;6.754;2024-01-30T07:20:27;102249.44;;;8.69;78.76
28004;BME280;15330;51.234;6.754;2024-01-30T07:22:52;102258.59;;;8.65;79.02
28004;BME280;15330;51.234;6.754;2024-01-30T07:25:18;102261.41;;;8.62;79.39
28004;BME280;15330;51.234;6.754;2024-01-30T07:27:43;102260.81;;;8.73;79.48
28004;BME280;15330;51.234;6.754;2024-01-30T07:30:09;102265.47;;;8.69;79.24
28004;BME280;15330;51.234;6.754;2024-01-30T07:32:34;102267.88;;;8.58;79.33
28004;BME280;15330;51.234;6.754;2024-01-30T07:34:59;102268.97;;;8.54;79.85
28004;BME280;15330;51.234;6.754;2024-01-30T07:37:25;102263.09;;;8.80;79.14
28004;BME280;15330;51.234;6.754;2024-01-30T07:39:50;102264.78;;;8.81;78.85
28004;BME280;15330;51.234;6.754;2024-01-30T07:42:15;102261.97;;;8.84;78.35
28004;BME280;15330;51.234;6.754;2024-01-30T07:44:42;102279.69;;;8.85;78.27
28004;BME280;15330;51.234;6.754;2024-01-30T07:47:08;102279.09;;;8.80;78.67
28004;BME280;15330;51.234;6.754;2024-01-30T07:49:34;102287.97;;;8.81;78.83
28004;BME280;15330;51.234;6.754;2024-01-30T07:51:59;102291.75;;;8.77;78.75
28004;BME280;15330;51.234;6.754;2024-01-30T07:54:25;102289.69;;;8.82;78.95
28004;BME280;15330;51.234;6.754;2024-01-30T07:56:50;102297.53;;;8.85;78.64
28004;BME280;15330;51.234;6.754;2024-01-30T07:59:15;102287.53;;;8.73;79.17
28004;BME280;15330;51.234;6.754;2024-01-30T08:01:41;102296.50;;;8.88;78.54
28004;BME280;15330;51.234;6.754;2024-01-30T08:04:06;102299.63;;;8.80;78.53
28004;BME280;15330;51.234;6.754;2024-01-30T08:06:32;102296.16;;;8.78;78.62
28004;BME280;15330;51.234;6.754;2024-01-30T08:08:58;102293.50;;;8.94;78.39
28004;BME280;15330;51.234;6.754;2024-01-30T08:11:24;102299.63;;;8.80;78.71
28004;BME280;15330;51.234;6.754;2024-01-30T08:13:54;102291.06;;;8.73;79.27
28004;BME280;15330;51.234;6.754;2024-01-30T08:16:20;102296.50;;;8.88;78.63
28004;BME280;15330;51.234;6.754;2024-01-30T08:18:45;102310.72;;;8.88;78.81
28004;BME280;15330;51.234;6.754;2024-01-30T08:21:11;102311.69;;;8.87;78.73
28004;BME280;15330;51.234;6.754;2024-01-30T08:23:38;102303.56;;;8.89;78.70
28004;BME280;15330;51.234;6.754;2024-01-30T08:26:04;102307.81;;;8.93;78.47
28004;BME280;15330;51.234;6.754;2024-01-30T08:28:29;102310.88;;;8.85;78.76
28004;BME280;15330;51.234;6.754;2024-01-30T08:30:55;102309.59;;;8.92;78.58
28004;BME280;15330;51.234;6.754;2024-01-30T08:33:20;102312.03;;;8.97;78.24
28004;BME280;15330;51.234;6.754;2024-01-30T08:35:45;102304.44;;;9.05;78.25
28004;BME280;15330;51.234;6.754;2024-01-30T08:38:11;102304.25;;;8.92;78.26
28004;BME280;15330;51.234;6.754;2024-01-30T08:40:37;102303.50;;;9.06;78.32
28004;BME280;15330;51.234;6.754;2024-01-30T08:43:03;102302.31;;;8.96;78.27
28004;BME280;15330;51.234;6.754;2024-01-30T08:45:29;102315.47;;;8.99;78.54
28004;BME280;15330;51.234;6.754;2024-01-30T08:47:55;102317.09;;;9.01;78.29
28004;BME280;15330;51.234;6.754;2024-01-30T08:50:21;102318.25;;;9.29;77.38
28004;BME280;15330;51.234;6.754;2024-01-30T08:52:46;102313.41;;;9.36;77.03
28004;BME280;15330;51.234;6.754;2024-01-30T08:55:12;102330.47;;;9.17;77.56
28004;BME280;15330;51.234;6.754;2024-01-30T08:57:37;102310.47;;;9.24;77.28
28004;BME280;15330;51.234;6.754;2024-01-30T09:00:03;102321.34;;;9.21;77.27
28004;BME280;15330;51.234;6.754;2024-01-30T09:02:32;102325.28;;;9.14;77.65
28004;BME280;15330;51.234;6.754;2024-01-30T09:04:57;102333.06;;;9.19;77.63
28004;BME280;15330;51.234;6.754;2024-01-30T09:07:23;102334.44;;;9.10;77.81
28004;BME280;15330;51.234;6.754;2024-01-30T09:09:48;102335.47;;;9.23;77.27
28004;BME280;15330;51.234;6.754;2024-01-30T09:12:14;102341.34;;;9.30;77.39
28004;BME280;15330;51.234;6.754;2024-01-30T09:14:40;102345.66;;;9.32;77.11
28004;BME280;15330;51.234;6.754;2024-01-30T09:17:08;102325.63;;;9.40;77.01
28004;BME280;15330;51.234;6.754;2024-01-30T09:19:33;102336.84;;;9.30;77.25
28004;BME280;15330;51.234;6.754;2024-01-30T09:21:59;102343.59;;;9.38;77.08
28004;BME280;15330;51.234;6.754;2024-01-30T09:24:25;102352.97;;;9.61;76.47
28004;BME280;15330;51.234;6.754;2024-01-30T09:26:51;102344.25;;;9.73;75.96
28004;BME280;15330;51.234;6.754;2024-01-30T09:29:16;102347.25;;;9.83;75.33
28004;BME280;15330;51.234;6.754;2024-01-30T09:31:45;102354.34;;;9.98;75.03
28004;BME280;15330;51.234;6.754;2024-01-30T09:34:11;102353.38;;;10.15;74.51
28004;BME280;15330;51.234;6.754;2024-01-30T09:36:37;102363.44;;;9.95;75.17
28004;BME280;15330;51.234;6.754;2024-01-30T09:39:02;102364.44;;;10.09;74.57
28004;BME280;15330;51.234;6.754;2024-01-30T09:41:29;102361.44;;;9.99;74.99
28004;BME280;15330;51.234;6.754;2024-01-30T09:43:57;102358.44;;;9.89;75.46
28004;BME280;15330;51.234;6.754;2024-01-30T09:46:26;102367.00;;;9.80;75.65
28004;BME280;15330;51.234;6.754;2024-01-30T09:48:53;102352.50;;;9.84;75.79
28004;BME280;15330;51.234;6.754;2024-01-30T09:51:20;102357.81;;;10.00;75.23
28004;BME280;15330;51.234;6.754;2024-01-30T09:53:47;102354.78;;;10.06;75.75
28004;BME280;15330;51.234;6.754;2024-01-30T09:56:13;102357.44;;;10.06;75.10
28004;BME280;15330;51.234;6.754;2024-01-30T09:58:39;102356.38;;;10.24;74.42
28004;BME280;15330;51.234;6.754;2024-01-30T10:01:07;102357.38;;;10.52;73.45
28004;BME280;15330;51.234;6.754;2024-01-30T10:03:32;102358.91;;;10.12;74.64
28004;BME280;15330;51.234;6.754;2024-01-30T10:05:59;102367.44;;;10.18;74.24
28004;BME280;15330;51.234;6.754;2024-01-30T10:08:26;102371.00;;;10.03;75.07
28004;BME280;15330;51.234;6.754;2024-01-30T10:10:52;102373.19;;;9.96;75.33
28004;BME280;15330;51.234;6.754;2024-01-30T10:13:18;102372.38;;;10.10;74.94
28004;BME280;15330;51.234;6.754;2024-01-30T10:15:43;102364.31;;;10.26;74.38
28004;BME280;15330;51.234;6.754;2024-01-30T10:18:10;102360.94;;;9.92;75.88
28004;BME280;15330;51.234;6.754;2024-01-30T10:20:36;102367.84;;;9.96;75.73
28004;BME280;15330;51.234;6.754;2024-01-30T10:23:01;102356.88;;;9.85;76.14
28004;BME280;15330;51.234;6.754;2024-01-30T10:25:27;102368.38;;;10.17;75.40
28004;BME280;15330;51.234;6.754;2024-01-30T10:27:56;102361.75;;;10.09;75.82
28004;BME280;15330;51.234;6.754;2024-01-30T10:30:22;102365.69;;;10.17;75.13
28004;BME280;15330;51.234;6.754;2024-01-30T10:32:48;102360.72;;;10.11;75.62
28004;BME280;15330;51.234;6.754;2024-01-30T10:35:13;102359.63;;;9.99;76.07
28004;BME280;15330;51.234;6.754;2024-01-30T10:37:39;102349.69;;;10.01;76.06
28004;BME280;15330;51.234;6.754;2024-01-30T10:40:05;102356.72;;;10.18;75.69
28004;BME280;15330;51.234;6.754;2024-01-30T10:42:36;102360.91;;;10.08;76.04
28004;BME280;15330;51.234;6.754;2024-01-30T10:45:14;102357.38;;;10.38;75.34
28004;BME280;15330;51.234;6.754;2024-01-30T10:47:49;102364.28;;;10.56;74.48
28004;BME280;15330;51.234;6.754;2024-01-30T10:50:16;102368.88;;;10.54;74.45
28004;BME280;15330;51.234;6.754;2024-01-30T10:52:42;102353.66;;;10.40;75.04
28004;BME280;15330;51.234;6.754;2024-01-30T10:55:07;102355.00;;;10.62;74.63
28004;BME280;15330;51.234;6.754;2024-01-30T10:57:37;102359.13;;;10.53;74.86
28004;BME280;15330;51.234;6.754;2024-01-30T11:00:14;102354.16;;;10.61;74.80
28004;BME280;15330;51.234;6.754;2024-01-30T11:02:45;102371.28;;;10.73;74.44
28004;BME280;15330;51.234;6.754;2024-01-30T11:05:11;102363.34;;;10.86;74.06
28004;BME280;15330;51.234;6.754;2024-01-30T11:07:39;102365.06;;;10.87;74.16
28004;BME280;15330;51.234;6.754;2024-01-30T11:10:05;102367.94;;;10.69;74.71
28004;BME280;15330;51.234;6.754;2024-01-30T11:12:33;102374.63;;;10.77;74.51
28004;BME280;15330;51.234;6.754;2024-01-30T11:20:21;102368.31;;;10.92;74.49
28004;BME280;15330;51.234;6.754;2024-01-30T11:22:49;102375.97;;;10.84;74.64
28004;BME280;15330;51.234;6.754;2024-01-30T11:25:17;102379.41;;;10.71;74.59
28004;BME280;15330;51.234;6.754;2024-01-30T11:27:43;102375.78;;;10.87;74.55
28004;BME280;15330;51.234;6.754;2024-01-30T11:30:09;102362.38;;;10.87;74.59
28004;BME280;15330;51.234;6.754;2024-01-30T11:32:35;102361.41;;;10.88;74.54
28004;BME280;15330;51.234;6.754;2024-01-30T11:35:03;102375.31;;;10.80;74.69
28004;BME280;15330;51.234;6.754;2024-01-30T11:37:30;102370.31;;;10.74;74.91
28004;BME280;15330;51.234;6.754;2024-01-30T11:39:56;102362.94;;;10.78;75.01
28004;BME280;15330;51.234;6.754;2024-01-30T11:42:23;102370.81;;;10.81;75.22
28004;BME280;15330;51.234;6.754;2024-01-30T11:44:50;102364.41;;;10.69;75.45
28004;BME280;15330;51.234;6.754;2024-01-30T11:47:16;102367.25;;;10.80;75.27
28004;BME280;15330;51.234;6.754;2024-01-30T11:49:42;102359.22;;;10.80;75.48
28004;BME280;15330;51.234;6.754;2024-01-30T11:52:09;102355.31;;;10.86;75.53
28004;BME280;15330;51.234;6.754;2024-01-30T11:54:34;102370.03;;;10.93;75.31
28004;BME280;15330;51.234;6.754;2024-01-30T11:57:00;102370.69;;;10.96;75.47
28004;BME280;15330;51.234;6.754;2024-01-30T11:59:25;102366.88;;;11.01;75.72
28004;BME280;15330;51.234;6.754;2024-01-30T12:01:52;102362.41;;;11.01;75.57
28004;BME280;15330;51.234;6.754;2024-01-30T12:04:17;102362.16;;;11.04;75.99
28004;BME280;15330;51.234;6.754;2024-01-30T12:06:43;102359.09;;;11.10;75.83
28004;BME280;15330;51.234;6.754;2024-01-30T12:09:09;102359.88;;;11.12;76.47
28004;BME280;15330;51.234;6.754;2024-01-30T12:11:44;102360.47;;;11.17;76.17
28004;BME280;15330;51.234;6.754;2024-01-30T12:14:11;102366.22;;;11.11;76.39
28004;BME280;15330;51.234;6.754;2024-01-30T12:16:36;102366.75;;;11.16;76.29
28004;BME280;15330;51.234;6.754;2024-01-30T12:19:02;102358.53;;;11.19;76.34
28004;BME280;15330;51.234;6.754;2024-01-30T12:21:29;102351.25;;;11.22;76.74
28004;BME280;15330;51.234;6.754;2024-01-30T12:23:55;102342.53;;;11.18;77.21
28004;BME280;15330;51.234;6.754;2024-01-30T12:26:21;102343.00;;;11.25;77.01
28004;BME280;15330;51.234;6.754;2024-01-30T12:28:50;102353.53;;;11.28;77.57
28004;BME280;15330;51.234;6.754;2024-01-30T12:31:15;102351.41;;;11.33;77.90
28004;BME280;15330;51.234;6.754;2024-01-30T12:33:40;102345.75;;;11.37;77.72
28004;BME280;15330;51.234;6.754;2024-01-30T12:36:06;102343.75;;;11.41;77.89
28004;BME280;15330;51.234;6.754;2024-01-30T12:38:32;102348.97;;;11.42;78.26
28004;BME280;15330;51.234;6.754;2024-01-30T12:40:57;102345.44;;;11.42;78.61
28004;BME280;15330;51.234;6.754;2024-01-30T12:43:26;102341.81;;;11.43;78.89
28004;BME280;15330;51.234;6.754;2024-01-30T12:45:54;102339.88;;;11.45;78.79
28004;BME280;15330;51.234;6.754;2024-01-30T12:48:20;102346.56;;;11.52;79.04
28004;BME280;15330;51.234;6.754;2024-01-30T12:50:45;102351.53;;;11.58;78.70
28004;BME280;15330;51.234;6.754;2024-01-30T12:53:11;102347.06;;;11.59;79.41
28004;BME280;15330;51.234;6.754;2024-01-30T12:55:38;102349.50;;;11.62;79.30